createdAt,value
2022-09-12T00:00:30.303Z,101164.87
2022-09-12T00:03:58.512Z,101163.66
2022-09-12T00:07:36.883Z,101168.31
2022-09-12T00:11:06.207Z,101165.71
2022-09-12T00:14:32.847Z,101163.92
2022-09-12T00:18:04.216Z,101157.57
2022-09-12T00:21:31.894Z,101163.13
2022-09-12T00:24:49.168Z,101166.83
2022-09-12T00:28:16.422Z,101169.56
2022-09-12T00:31:51.332Z,101171.26
2022-09-12T00:35:18.148Z,101164.89
2022-09-12T00:38:45.288Z,101159.02
2022-09-12T00:42:18.196Z,101159.69
2022-09-12T00:45:38.323Z,101162.65
2022-09-12T00:48:58.146Z,101164.71
2022-09-12T00:52:02.859Z,101165.02
2022-09-12T00:55:30.023Z,101167.59
2022-09-12T00:58:58.142Z,101177.44
2022-09-12T01:02:28.688Z,101175.29
2022-09-12T01:05:57.947Z,101160.27
2022-09-12T01:09:16.934Z,101154.89
2022-09-12T01:12:44.920Z,101162.20
2022-09-12T01:16:15.990Z,101159.79
2022-09-12T01:19:41.663Z,101169.20
2022-09-12T01:23:19.880Z,101170.27
2022-09-12T01:26:44.381Z,101175.02
2022-09-12T01:30:27.499Z,101173.05
2022-09-12T01:34:07.339Z,101168.77
2022-09-12T01:37:34.431Z,101180.29
2022-09-12T01:41:03.490Z,101189.23
2022-09-12T01:44:39.907Z,101189.94
2022-09-12T01:47:52.927Z,101188.25
2022-09-12T01:51:23.035Z,101184.31
2022-09-12T01:54:53.467Z,101182.59
2022-09-12T01:58:34.108Z,101183.45
2022-09-12T02:01:49.193Z,101184.84
2022-09-12T02:05:19.019Z,101193.23
2022-09-12T02:09:04.362Z,101188.09
2022-09-12T02:12:31.813Z,101195.16
2022-09-12T02:15:41.228Z,101190.15
2022-09-12T02:19:08.216Z,101194.33
2022-09-12T02:22:25.026Z,101189.39
2022-09-12T02:25:52.697Z,101191.66
2022-09-12T02:29:20.141Z,101185.93
2022-09-12T02:36:35.331Z,101187.98
2022-09-12T02:39:32.964Z,101190.23
2022-09-12T02:42:50.740Z,101195.20
2022-09-12T02:46:17.858Z,101194.13
2022-09-12T02:49:30.422Z,101200.07
2022-09-12T02:52:47.355Z,101199.30
2022-09-12T02:56:07.664Z,101208.23
2022-09-12T02:59:17.484Z,101215.69
2022-09-12T03:02:54.768Z,101216.00
2022-09-12T03:06:12.937Z,101227.96
2022-09-12T03:09:50.381Z,101231.27
2022-09-12T03:13:02.034Z,101225.23
2022-09-12T03:16:47.793Z,101225.34
2022-09-12T03:20:19.523Z,101226.03
2022-09-12T03:24:01.470Z,101220.94
2022-09-12T03:27:18.184Z,101229.58
2022-09-12T03:30:44.944Z,101226.74
2022-09-12T03:34:14.187Z,101228.17
2022-09-12T03:37:33.835Z,101221.05
2022-09-12T03:40:40.283Z,101207.98
2022-09-12T03:43:46.233Z,101209.08
2022-09-12T03:47:08.036Z,101213.94
2022-09-12T03:50:37.477Z,101220.64
2022-09-12T03:54:04.417Z,101230.23
2022-09-12T03:57:31.887Z,101228.70
2022-09-12T04:00:49.287Z,101228.92
2022-09-12T04:04:02.868Z,101233.80
2022-09-12T04:07:29.625Z,101230.45
2022-09-12T04:10:46.983Z,101224.53
2022-09-12T04:14:02.964Z,101208.21
2022-09-12T04:17:31.580Z,101194.75
2022-09-12T04:20:51.208Z,101209.42
2022-09-12T04:24:21.945Z,101209.57
2022-09-12T04:27:48.300Z,101239.41
2022-09-12T04:31:15.163Z,101283.52
2022-09-12T04:34:43.137Z,101283.92
2022-09-12T04:38:11.088Z,101275.21
2022-09-12T04:40:58.245Z,101263.86
2022-09-12T04:44:08.008Z,101259.89
2022-09-12T04:47:04.802Z,101273.34
2022-09-12T04:50:15.188Z,101280.93
2022-09-12T04:53:42.426Z,101280.20
2022-09-12T04:57:10.053Z,101288.86
2022-09-12T05:00:28.749Z,101278.58
2022-09-12T05:03:36.338Z,101288.98
2022-09-12T05:06:32.316Z,101269.37
2022-09-12T05:09:50.530Z,101275.61
2022-09-12T05:13:17.295Z,101279.64
2022-09-12T05:16:49.031Z,101291.58
2022-09-12T05:19:30.210Z,101303.15
2022-09-12T05:22:50.017Z,101303.27
2022-09-12T05:26:03.969Z,101303.27
2022-09-12T05:29:34.188Z,101305.92
2022-09-12T05:33:01.206Z,101309.88
2022-09-12T05:36:22.742Z,101298.11
2022-09-12T05:39:33.221Z,101299.20
2022-09-12T05:42:42.753Z,101292.09
2022-09-12T05:46:12.069Z,101270.33
2022-09-12T05:49:13.156Z,101255.58
2022-09-12T05:52:29.868Z,101235.58
2022-09-12T05:55:57.405Z,101214.70
2022-09-12T05:59:18.122Z,101211.89
2022-09-12T06:02:45.130Z,101194.62
2022-09-12T06:06:03.753Z,101206.45
2022-09-12T06:09:14.897Z,101230.64
2022-09-12T06:12:42.644Z,101237.13
2022-09-12T06:16:02.615Z,101250.51
2022-09-12T06:19:22.656Z,101254.53
2022-09-12T06:22:48.786Z,101249.27
2022-09-12T06:26:16.204Z,101246.54
2022-09-12T06:29:44.124Z,101250.25
2022-09-12T06:33:11.490Z,101263.36
2022-09-12T06:36:30.204Z,101263.93
2022-09-12T06:40:01.942Z,101256.26
2022-09-12T06:43:29.356Z,101257.27
2022-09-12T06:46:56.436Z,101263.60
2022-09-12T06:50:23.466Z,101258.34
2022-09-12T06:53:50.643Z,101266.50
2022-09-12T06:57:17.982Z,101281.98
2022-09-12T07:00:42.592Z,101280.06
2022-09-12T07:04:09.756Z,101293.72
2022-09-12T07:07:39.854Z,101296.40
2022-09-12T07:10:59.360Z,101291.98
2022-09-12T07:13:52.866Z,101292.52
2022-09-12T07:17:10.023Z,101294.60
2022-09-12T07:20:36.473Z,101291.23
2022-09-12T07:23:47.937Z,101295.80
2022-09-12T07:26:29.840Z,101298.10
2022-09-12T07:29:57.863Z,101291.79
2022-09-12T07:33:26.227Z,101298.83
2022-09-12T07:36:45.858Z,101300.30
2022-09-12T07:40:15.686Z,101301.41
2022-09-12T07:43:42.579Z,101299.86
2022-09-12T07:47:10.594Z,101299.61
2022-09-12T07:50:29.279Z,101297.41
2022-09-12T07:54:00.100Z,101303.76
2022-09-12T07:57:18.234Z,101306.41
2022-09-12T08:00:38.923Z,101308.36
2022-09-12T08:03:56.758Z,101302.10
2022-09-12T08:07:22.912Z,101292.24
2022-09-12T08:10:42.887Z,101282.76
2022-09-12T08:14:09.607Z,101277.13
2022-09-12T08:17:36.075Z,101262.91
2022-09-12T08:21:04.841Z,101257.08
2022-09-12T08:24:35.068Z,101252.40
2022-09-12T08:28:03.964Z,101258.09
2022-09-12T08:31:21.521Z,101264.11
2022-09-12T08:34:39.395Z,101244.15
2022-09-12T08:37:56.206Z,101242.15
2022-09-12T08:41:33.134Z,101272.39
2022-09-12T08:44:50.182Z,101279.45
2022-09-12T08:48:29.858Z,101235.77
2022-09-12T08:51:56.580Z,101223.92
2022-09-12T08:55:13.755Z,101242.23
2022-09-12T08:58:11.134Z,101237.20
2022-09-12T09:01:21.950Z,101261.88
2022-09-12T09:05:07.110Z,101284.17
2022-09-12T09:08:32.497Z,101277.19
2022-09-12T09:11:54.385Z,101269.70
2022-09-12T09:15:16.682Z,101290.40
2022-09-12T09:18:47.439Z,101287.69
2022-09-12T09:22:15.460Z,101284.94
2022-09-12T09:24:58.927Z,101282.69
2022-09-12T09:28:05.193Z,101279.61
2022-09-12T09:31:15.315Z,101283.63
2022-09-12T09:34:32.578Z,101282.68
2022-09-12T09:38:02.681Z,101270.70
2022-09-12T09:41:34.027Z,101264.70
2022-09-12T09:45:02.444Z,101265.91
2022-09-12T09:48:16.842Z,101263.61
2022-09-12T09:51:06.218Z,101256.16
2022-09-12T09:54:07.127Z,101252.63
2022-09-12T09:57:29.986Z,101246.92
2022-09-12T10:00:10.952Z,101240.96
2022-09-12T10:03:36.050Z,101239.23
2022-09-12T10:06:52.855Z,101235.06
2022-09-12T10:10:25.755Z,101233.79
2022-09-12T10:13:20.582Z,101235.34
2022-09-12T10:15:39.634Z,101226.55
2022-09-12T10:18:41.212Z,101227.12
2022-09-12T10:21:58.224Z,101228.00
2022-09-12T10:25:24.920Z,101230.86
2022-09-12T10:28:25.270Z,101252.34
2022-09-12T10:31:53.270Z,101226.90
2022-09-12T10:35:29.717Z,101238.10
2022-09-12T10:38:39.344Z,101250.72
2022-09-12T10:41:40.918Z,101234.06
2022-09-12T10:44:40.999Z,101239.77
2022-09-12T10:48:23.149Z,101247.87
2022-09-12T10:51:23.071Z,101237.18
2022-09-12T10:54:51.176Z,101241.80
2022-09-12T10:58:15.152Z,101244.03
2022-09-12T11:00:59.439Z,101243.95
2022-09-12T11:04:35.074Z,101255.45
2022-09-12T11:08:05.368Z,101262.13
2022-09-12T11:11:24.151Z,101246.05
2022-09-12T11:14:49.728Z,101248.17
2022-09-12T11:17:56.853Z,101267.39
2022-09-12T11:21:14.039Z,101263.34
2022-09-12T11:24:19.215Z,101249.95
2022-09-12T11:27:31.248Z,101240.83
2022-09-12T11:30:58.252Z,101224.73
2022-09-12T11:34:19.940Z,101211.35
2022-09-12T11:37:42.048Z,101209.71
2022-09-12T11:41:18.051Z,101226.12
2022-09-12T11:44:52.446Z,101232.33
2022-09-12T11:48:09.750Z,101239.98
2022-09-12T11:51:20.030Z,101247.58
2022-09-12T11:54:56.380Z,101251.77
2022-09-12T11:58:11.679Z,101259.55
2022-09-12T12:01:38.849Z,101260.25
2022-09-12T12:04:53.078Z,101256.22
2022-09-12T12:07:49.807Z,101269.94
2022-09-12T12:10:10.174Z,101266.30
2022-09-12T12:12:59.364Z,101257.42
2022-09-12T12:16:16.256Z,101257.83
2022-09-12T12:19:48.759Z,101259.09
2022-09-12T12:23:12.717Z,101261.62
2022-09-12T12:26:33.323Z,101254.25
2022-09-12T12:29:57.746Z,101253.00
2022-09-12T12:33:24.116Z,101258.39
2022-09-12T12:36:02.813Z,101248.80
2022-09-12T12:38:54.532Z,101249.19
2022-09-12T12:41:43.821Z,101245.17
2022-09-12T12:44:48.203Z,101237.25
2022-09-12T12:47:41.083Z,101207.77
2022-09-12T12:49:58.784Z,101194.23
2022-09-12T12:52:04.789Z,101208.89
2022-09-12T12:54:33.765Z,101229.10
2022-09-12T12:56:42.029Z,101234.08
2022-09-12T12:58:48.007Z,101250.47
2022-09-12T13:01:45.687Z,101271.46
2022-09-12T13:04:08.182Z,101263.08
2022-09-12T13:07:14.046Z,101250.10
2022-09-12T13:10:19.707Z,101215.39
2022-09-12T13:13:06.358Z,101215.07
2022-09-12T13:16:11.842Z,101207.02
2022-09-12T13:19:18.165Z,101237.98
2022-09-12T13:22:11.607Z,101244.46
2022-09-12T13:25:21.075Z,101250.33
2022-09-12T13:28:00.772Z,101259.04
2022-09-12T13:31:08.273Z,101255.23
2022-09-12T13:34:23.242Z,101259.49
2022-09-12T13:37:15.136Z,101265.05
2022-09-12T13:40:21.232Z,101286.51
2022-09-12T13:43:21.522Z,101274.98
2022-09-12T13:46:30.517Z,101288.73
2022-09-12T13:49:28.370Z,101293.50
2022-09-12T13:52:35.277Z,101295.87
2022-09-12T13:55:43.235Z,101294.45
2022-09-12T13:58:41.847Z,101293.41
2022-09-12T14:01:48.118Z,101311.45
2022-09-12T14:04:42.631Z,101315.27
2022-09-12T14:07:45.308Z,101305.98
2022-09-12T14:10:25.266Z,101309.08
2022-09-12T14:13:31.674Z,101309.23
2022-09-12T14:16:27.122Z,101313.03
2022-09-12T14:19:16.596Z,101318.42
2022-09-12T14:21:59.808Z,101314.33
2022-09-12T14:24:47.105Z,101321.36
2022-09-12T14:27:53.556Z,101323.89
2022-09-12T14:30:48.384Z,101321.84
2022-09-12T14:33:55.639Z,101329.85
2022-09-12T14:37:05.624Z,101342.12
2022-09-12T14:39:47.806Z,101342.12
2022-09-12T14:42:44.246Z,101339.66
2022-09-12T14:45:39.644Z,101339.09
2022-09-12T14:48:49.482Z,101332.36
2022-09-12T14:51:54.409Z,101335.78
2022-09-12T14:54:52.671Z,101336.65
2022-09-12T14:57:57.349Z,101339.33
2022-09-12T15:01:03.706Z,101346.62
2022-09-12T15:04:17.187Z,101343.23
2022-09-12T15:07:04.297Z,101331.02
2022-09-12T15:10:10.848Z,101328.19
2022-09-12T15:13:18.519Z,101331.50
2022-09-12T15:16:15.828Z,101330.33
2022-09-12T15:19:22.258Z,101327.79
2022-09-12T15:22:19.322Z,101331.66
2022-09-12T15:24:58.740Z,101338.25
2022-09-12T15:28:05.215Z,101335.16
2022-09-12T15:31:13.471Z,101319.15
2022-09-12T15:34:19.386Z,101320.98
2022-09-12T15:37:25.827Z,101313.38
2022-09-12T15:40:31.939Z,101302.98
2022-09-12T15:43:40.313Z,101303.78
2022-09-12T15:46:29.924Z,101307.75
2022-09-12T15:49:36.619Z,101309.65
2022-09-12T15:52:44.022Z,101312.90
2022-09-12T15:55:41.621Z,101316.14
2022-09-12T15:58:31.814Z,101311.15
2022-09-12T16:04:25.716Z,101315.66
2022-09-12T16:07:56.078Z,101296.56
2022-09-12T16:14:59.111Z,101300.29
2022-09-12T16:18:16.742Z,101300.67
2022-09-12T16:21:33.515Z,101295.21
2022-09-12T16:25:00.101Z,101290.77
2022-09-12T16:28:06.008Z,101299.50
2022-09-12T16:31:13.844Z,101300.05
2022-09-12T16:34:39.470Z,101301.63
2022-09-12T16:37:54.949Z,101298.06
2022-09-12T16:41:02.231Z,101278.66
2022-09-12T16:44:31.140Z,101272.23
2022-09-12T16:47:28.712Z,101276.45
2022-09-12T16:50:46.556Z,101283.02
2022-09-12T16:53:53.350Z,101280.41
2022-09-12T16:56:51.151Z,101284.59
2022-09-12T16:59:21.163Z,101286.88
2022-09-12T17:02:28.576Z,101284.41
2022-09-12T17:04:59.678Z,101289.88
2022-09-12T17:07:56.767Z,101290.27
2022-09-12T17:10:49.972Z,101292.87
2022-09-12T17:14:09.552Z,101292.48
2022-09-12T17:17:21.625Z,101288.10
2022-09-12T17:20:48.813Z,101281.26
2022-09-12T17:23:55.769Z,101280.18
2022-09-12T17:27:23.546Z,101279.04
2022-09-12T17:30:30.946Z,101272.16
2022-09-12T17:33:48.531Z,101264.95
2022-09-12T17:37:15.426Z,101261.27
2022-09-12T17:40:58.975Z,101255.83
2022-09-12T17:44:06.157Z,101248.33
2022-09-12T17:47:05.290Z,101244.89
2022-09-12T17:50:39.410Z,101239.70
2022-09-12T17:53:45.594Z,101238.95
2022-09-12T17:57:06.136Z,101240.91
2022-09-12T18:00:36.294Z,101231.10
2022-09-12T18:03:53.282Z,101219.89
2022-09-12T18:07:11.947Z,101214.52
2022-09-12T18:10:29.394Z,101207.70
2022-09-12T18:13:56.374Z,101202.48
2022-09-12T18:17:06.384Z,101194.92
2022-09-12T18:20:13.493Z,101195.95
2022-09-12T18:23:01.981Z,101193.77
2022-09-12T18:26:20.282Z,101196.30
2022-09-12T18:30:04.271Z,101192.83
2022-09-12T18:33:36.257Z,101188.17
2022-09-12T18:37:12.526Z,101176.20
2022-09-12T18:40:19.332Z,101169.07
2022-09-12T18:43:36.616Z,101171.74
2022-09-12T18:47:06.298Z,101172.95
2022-09-12T18:50:33.049Z,101171.95
2022-09-12T18:53:58.603Z,101164.45
2022-09-12T18:57:15.412Z,101151.80
2022-09-12T19:00:26.175Z,101155.83
2022-09-12T19:03:45.883Z,101148.77
2022-09-12T19:06:52.362Z,101146.39
2022-09-12T19:10:09.249Z,101137.37
2022-09-12T19:13:16.925Z,101137.58
2022-09-12T19:16:06.351Z,101135.11
2022-09-12T19:19:06.239Z,101133.38
2022-09-12T19:22:25.706Z,101128.70
2022-09-12T19:25:52.464Z,101121.78
2022-09-12T19:28:52.061Z,101118.42
2022-09-12T19:31:48.835Z,101123.35
2022-09-12T19:35:19.606Z,101120.12
2022-09-12T19:38:48.447Z,101111.77
2022-09-12T19:42:08.095Z,101105.73
2022-09-12T19:45:26.589Z,101101.39
2022-09-12T19:48:48.934Z,101100.27
2022-09-12T19:52:17.541Z,101091.59
2022-09-12T19:55:24.545Z,101090.64
2022-09-12T19:58:56.639Z,101087.46
2022-09-12T20:02:17.444Z,101086.79
2022-09-12T20:05:44.332Z,101080.42
2022-09-12T20:09:11.095Z,101081.54
2022-09-12T20:12:22.146Z,101081.34
2022-09-12T20:15:38.792Z,101078.92
2022-09-12T20:18:56.569Z,101077.31
2022-09-12T20:21:48.134Z,101077.95
2022-09-12T20:25:14.225Z,101075.76
2022-09-12T20:28:22.104Z,101078.07
2022-09-12T20:31:32.260Z,101075.24
2022-09-12T20:34:57.726Z,101070.98
2022-09-12T20:38:14.638Z,101068.33
2022-09-12T20:41:29.778Z,101067.73
2022-09-12T20:44:31.314Z,101065.83
2022-09-12T20:47:27.305Z,101061.14
2022-09-12T20:50:31.967Z,101057.91
2022-09-12T20:53:31.720Z,101055.37
2022-09-12T20:56:35.302Z,101052.92
2022-09-12T20:59:43.572Z,101051.52
2022-09-12T21:02:44.403Z,101050.09
2022-09-12T21:05:25.940Z,101052.67
2022-09-12T21:08:36.263Z,101051.40
2022-09-12T21:11:29.802Z,101048.27
2022-09-12T21:14:39.760Z,101045.21
2022-09-12T21:17:40.312Z,101042.85
2022-09-12T21:20:37.865Z,101041.10
2022-09-12T21:23:53.601Z,101043.00
2022-09-12T21:26:36.759Z,101046.89
2022-09-12T21:29:29.924Z,101042.06
2022-09-12T21:32:03.194Z,101042.41
2022-09-12T21:34:50.769Z,101039.94
2022-09-12T21:38:07.396Z,101037.65
2022-09-12T21:41:24.579Z,101032.78
2022-09-12T21:44:42.518Z,101033.09
2022-09-12T21:47:48.307Z,101031.05
2022-09-12T21:51:04.235Z,101029.80
2022-09-12T21:54:13.555Z,101026.88
2022-09-12T21:56:55.146Z,101027.63
2022-09-12T22:00:22.052Z,101026.89
2022-09-12T22:03:39.906Z,101026.13
2022-09-12T22:07:07.352Z,101022.43
2022-09-12T22:10:24.980Z,101019.09
2022-09-12T22:13:23.062Z,101014.98
2022-09-12T22:16:54.285Z,101014.72
2022-09-12T22:20:12.352Z,101011.47
2022-09-12T22:23:39.198Z,101010.10
2022-09-12T22:26:51.277Z,101005.48
2022-09-12T22:30:18.492Z,101001.02
2022-09-12T22:33:39.067Z,101000.48
2022-09-12T22:36:38.795Z,100998.59
2022-09-12T22:39:55.998Z,100995.66
2022-09-12T22:42:53.815Z,100996.45
2022-09-12T22:46:00.801Z,100994.70
2022-09-12T22:49:08.993Z,100988.66
2022-09-12T22:52:36.667Z,100981.61
2022-09-12T22:55:22.660Z,100978.67
2022-09-12T22:58:30.209Z,100972.38
2022-09-12T23:01:29.365Z,100973.89
2022-09-12T23:04:38.799Z,100975.34
2022-09-12T23:07:19.101Z,100973.28
2022-09-12T23:10:20.701Z,100969.27
2022-09-12T23:12:57.412Z,100969.95
2022-09-12T23:16:14.171Z,100964.84
2022-09-12T23:19:35.462Z,100964.94
2022-09-12T23:23:03.150Z,100959.24
2022-09-12T23:25:59.799Z,100957.90
2022-09-12T23:29:30.681Z,100955.62
2022-09-12T23:32:00.259Z,100952.85
2022-09-12T23:35:28.370Z,100949.81
2022-09-12T23:38:45.334Z,100948.30
2022-09-12T23:41:37.194Z,100944.23
2022-09-12T23:45:05.218Z,100941.05
2022-09-12T23:48:32.963Z,100939.24
2022-09-12T23:51:59.508Z,100938.08
2022-09-12T23:55:30.320Z,100936.00
2022-09-12T23:58:57.525Z,100931.05
